createdAt,value
2023-02-08T00:01:23.552Z,60.79
2023-02-08T00:03:25.514Z,60.09
2023-02-08T00:05:27.213Z,60.40
2023-02-08T00:07:28.984Z,60.13
2023-02-08T00:09:30.698Z,60.48
2023-02-08T00:11:32.259Z,60.29
2023-02-08T00:13:34.631Z,60.42
2023-02-08T00:15:41.309Z,60.37
2023-02-08T00:17:42.984Z,60.03
2023-02-08T00:19:44.589Z,59.56
2023-02-08T00:21:46.228Z,60.10
2023-02-08T00:23:48.301Z,59.94
2023-02-08T00:25:49.928Z,59.60
2023-02-08T00:27:51.695Z,59.14
2023-02-08T00:29:53.460Z,59.47
2023-02-08T00:31:55.145Z,59.44
2023-02-08T00:33:56.816Z,59.18
2023-02-08T00:36:00.013Z,59.50
2023-02-08T00:38:01.772Z,60.00
2023-02-08T00:40:05.836Z,59.61
2023-02-08T00:42:07.577Z,59.55
2023-02-08T00:44:09.321Z,58.71
2023-02-08T00:46:11.139Z,58.83
2023-02-08T00:48:12.811Z,59.38
2023-02-08T00:50:14.552Z,58.94
2023-02-08T00:52:16.299Z,58.81
2023-02-08T00:54:19.932Z,58.98
2023-02-08T00:56:21.827Z,59.44
2023-02-08T00:58:23.954Z,59.40
2023-02-08T01:00:25.593Z,59.17
2023-02-08T01:02:27.910Z,58.65
2023-02-08T01:04:29.610Z,59.55
2023-02-08T01:06:31.412Z,59.38
2023-02-08T01:08:33.211Z,58.77
2023-02-08T01:10:34.852Z,59.11
2023-02-08T01:12:36.495Z,59.02
2023-02-08T01:14:39.315Z,59.42
2023-02-08T01:16:41.042Z,58.67
2023-02-08T01:18:44.125Z,59.21
2023-02-08T01:20:45.707Z,59.27
2023-02-08T01:22:48.618Z,59.75
2023-02-08T01:24:50.301Z,59.58
2023-02-08T01:26:52.020Z,59.33
2023-02-08T01:28:54.954Z,59.80
2023-02-08T01:30:56.739Z,59.41
2023-02-08T01:32:58.411Z,59.63
2023-02-08T01:35:00.052Z,59.90
2023-02-08T01:37:01.756Z,59.64
2023-02-08T01:39:04.256Z,60.09
2023-02-08T01:41:08.233Z,60.02
2023-02-08T01:43:22.903Z,59.24
2023-02-08T01:45:30.812Z,60.09
2023-02-08T01:47:32.494Z,59.53
2023-02-08T01:49:35.491Z,59.84
2023-02-08T01:51:55.327Z,60.08
2023-02-08T01:53:58.017Z,58.99
2023-02-08T01:56:01.713Z,59.88
2023-02-08T01:58:06.120Z,60.17
2023-02-08T02:00:21.359Z,61.13
2023-02-08T02:02:23.655Z,60.89
2023-02-08T02:04:25.849Z,60.34
2023-02-08T02:06:31.705Z,60.56
2023-02-08T02:08:33.371Z,60.47
2023-02-08T02:10:38.210Z,60.66
2023-02-08T02:12:41.040Z,61.00
2023-02-08T02:14:43.168Z,61.41
2023-02-08T02:16:44.842Z,62.00
2023-02-08T02:18:46.767Z,62.53
2023-02-08T02:21:08.082Z,62.67
2023-02-08T02:23:46.037Z,62.54
2023-02-08T02:26:09.253Z,62.32
2023-02-08T02:28:59.831Z,63.30
2023-02-08T02:31:23.134Z,63.15
2023-02-08T02:34:02.266Z,62.93
2023-02-08T02:36:06.722Z,62.76
2023-02-08T02:38:18.480Z,63.46
2023-02-08T02:40:28.905Z,62.99
2023-02-08T02:43:17.397Z,64.05
2023-02-08T02:45:37.221Z,64.22
2023-02-08T02:47:46.186Z,63.23
2023-02-08T02:49:54.637Z,63.84
2023-02-08T02:52:07.445Z,63.55
2023-02-08T02:54:13.514Z,63.84
2023-02-08T02:56:43.991Z,64.31
2023-02-08T02:58:46.053Z,64.28
2023-02-08T03:00:58.470Z,64.84
2023-02-08T03:03:00.134Z,64.93
2023-02-08T03:05:01.771Z,65.39
2023-02-08T03:07:16.587Z,65.64
2023-02-08T03:09:38.387Z,65.24
2023-02-08T03:11:46.723Z,65.97
2023-02-08T03:14:04.874Z,65.73
2023-02-08T03:16:33.035Z,65.58
2023-02-08T03:18:39.617Z,65.92
2023-02-08T03:20:59.071Z,65.69
2023-02-08T03:23:15.858Z,65.83
2023-02-08T03:25:21.580Z,65.84
2023-02-08T03:27:34.607Z,66.39
2023-02-08T03:29:59.405Z,65.78
2023-02-08T03:32:04.626Z,66.20
2023-02-08T03:34:33.397Z,65.74
2023-02-08T03:36:58.364Z,65.56
2023-02-08T03:39:01.908Z,66.13
2023-02-08T03:41:06.712Z,66.39
2023-02-08T03:43:38.490Z,66.50
2023-02-08T03:45:43.570Z,66.42
2023-02-08T03:47:47.086Z,67.11
2023-02-08T03:49:52.313Z,67.39
2023-02-08T03:51:57.791Z,67.39
2023-02-08T03:54:01.450Z,67.04
2023-02-08T03:56:07.784Z,66.60
2023-02-08T03:58:17.935Z,66.75
2023-02-08T04:00:21.612Z,66.20
2023-02-08T04:02:27.192Z,65.37
2023-02-08T04:04:34.890Z,66.00
2023-02-08T04:06:36.478Z,65.43
2023-02-08T04:08:38.139Z,65.48
2023-02-08T04:10:40.140Z,65.96
2023-02-08T04:12:42.062Z,65.72
2023-02-08T04:14:43.666Z,66.41
2023-02-08T04:16:45.298Z,67.21
2023-02-08T04:18:46.958Z,67.23
2023-02-08T04:20:48.600Z,67.60
2023-02-08T04:22:50.254Z,67.32
2023-02-08T04:24:51.845Z,68.66
2023-02-08T04:26:53.705Z,69.45
2023-02-08T04:28:55.299Z,70.02
2023-02-08T04:30:57.299Z,70.77
2023-02-08T04:33:00.211Z,71.11
2023-02-08T04:35:01.847Z,71.25
2023-02-08T04:37:03.544Z,70.57
2023-02-08T04:39:05.263Z,69.54
2023-02-08T04:41:06.896Z,68.88
2023-02-08T04:43:08.662Z,68.04
2023-02-08T04:45:11.044Z,67.93
2023-02-08T04:47:12.634Z,66.72
2023-02-08T04:49:14.382Z,67.04
2023-02-08T04:51:16.166Z,66.92
2023-02-08T04:53:17.759Z,66.51
2023-02-08T04:55:19.403Z,65.93
2023-02-08T04:57:21.035Z,65.21
2023-02-08T04:59:22.767Z,64.94
2023-02-08T05:01:24.397Z,65.47
2023-02-08T05:03:26.150Z,66.38
2023-02-08T05:05:28.511Z,66.92
2023-02-08T05:07:30.265Z,67.78
2023-02-08T05:09:31.884Z,67.81
2023-02-08T05:11:33.633Z,68.07
2023-02-08T05:13:35.227Z,68.63
2023-02-08T05:15:36.876Z,67.61
2023-02-08T05:17:38.967Z,69.04
2023-02-08T05:19:40.618Z,69.36
2023-02-08T05:21:42.248Z,69.32
2023-02-08T05:23:46.586Z,69.05
2023-02-08T05:25:48.387Z,68.36
2023-02-08T05:27:50.153Z,68.33
2023-02-08T05:29:51.850Z,68.04
2023-02-08T05:31:53.460Z,67.80
2023-02-08T05:33:55.112Z,67.13
2023-02-08T05:35:56.735Z,67.19
2023-02-08T05:37:58.349Z,66.37
2023-02-08T05:40:00.106Z,66.40
2023-02-08T05:42:01.751Z,65.98
2023-02-08T05:44:03.392Z,65.25
2023-02-08T05:46:05.182Z,65.08
2023-02-08T05:48:06.822Z,65.22
2023-02-08T05:50:09.190Z,64.21
2023-02-08T05:52:10.820Z,63.99
2023-02-08T05:54:12.516Z,64.50
2023-02-08T05:56:14.165Z,64.04
2023-02-08T05:58:16.307Z,64.01
2023-02-08T06:00:17.985Z,64.22
2023-02-08T06:02:19.581Z,64.71
2023-02-08T06:04:21.253Z,64.29
2023-02-08T06:06:22.881Z,64.02
2023-02-08T06:08:24.507Z,64.84
2023-02-08T06:10:26.183Z,65.52
2023-02-08T06:12:27.802Z,65.95
2023-02-08T06:14:29.527Z,66.00
2023-02-08T06:16:31.236Z,65.12
2023-02-08T06:18:32.914Z,64.96
2023-02-08T06:20:34.706Z,64.34
2023-02-08T06:22:36.449Z,63.52
2023-02-08T06:24:38.083Z,62.76
2023-02-08T06:26:39.800Z,63.01
2023-02-08T06:28:41.523Z,62.52
2023-02-08T06:30:43.665Z,62.04
2023-02-08T06:32:45.456Z,61.43
2023-02-08T06:34:48.366Z,60.92
2023-02-08T06:36:50.091Z,60.70
2023-02-08T06:38:51.733Z,61.14
2023-02-08T06:40:53.432Z,60.83
2023-02-08T06:42:55.136Z,61.13
2023-02-08T06:44:58.104Z,60.97
2023-02-08T06:47:00.007Z,61.47
2023-02-08T06:49:01.634Z,61.65
2023-02-08T06:51:03.509Z,61.59
2023-02-08T06:53:05.160Z,61.65
2023-02-08T06:55:07.036Z,61.16
2023-02-08T06:57:08.815Z,62.98
2023-02-08T06:59:10.470Z,63.96
2023-02-08T07:01:13.624Z,64.05
2023-02-08T07:03:17.543Z,63.50
2023-02-08T07:05:19.116Z,63.23
2023-02-08T07:07:20.986Z,63.35
2023-02-08T07:09:22.626Z,63.45
2023-02-08T07:11:24.269Z,63.19
2023-02-08T07:13:25.998Z,63.05
2023-02-08T07:15:27.728Z,63.08
2023-02-08T07:17:29.335Z,61.64
2023-02-08T07:19:31.506Z,63.15
2023-02-08T07:21:33.137Z,64.11
2023-02-08T07:23:34.789Z,64.10
2023-02-08T07:25:36.400Z,64.03
2023-02-08T07:27:38.099Z,64.21
2023-02-08T07:29:40.126Z,63.54
2023-02-08T07:31:41.906Z,61.65
2023-02-08T07:33:43.825Z,61.70
2023-02-08T07:35:45.416Z,61.53
2023-02-08T07:37:47.214Z,62.04
2023-02-08T07:39:48.853Z,61.65
2023-02-08T07:41:50.479Z,61.19
2023-02-08T07:43:52.174Z,60.95
2023-02-08T07:45:53.881Z,61.25
2023-02-08T07:47:55.486Z,60.33
2023-02-08T07:49:57.226Z,60.69
2023-02-08T07:52:00.179Z,60.41
2023-02-08T07:54:01.985Z,60.02
2023-02-08T07:56:03.946Z,60.21
2023-02-08T07:58:05.641Z,59.64
2023-02-08T08:00:08.010Z,59.81
2023-02-08T08:02:09.838Z,60.26
2023-02-08T08:04:11.697Z,59.21
2023-02-08T08:06:13.439Z,58.66
2023-02-08T08:08:15.110Z,58.13
2023-02-08T08:10:16.776Z,58.03
2023-02-08T08:12:18.538Z,56.97
2023-02-08T08:14:20.302Z,56.91
2023-02-08T08:16:22.622Z,55.33
2023-02-08T08:18:24.324Z,56.82
2023-02-08T08:20:26.131Z,58.02
2023-02-08T08:22:27.928Z,57.04
2023-02-08T08:24:31.764Z,56.46
2023-02-08T08:26:33.256Z,55.29
2023-02-08T08:28:34.997Z,54.19
2023-02-08T08:30:36.683Z,54.85
2023-02-08T08:32:38.512Z,55.25
2023-02-08T08:34:40.272Z,56.44
2023-02-08T08:36:41.956Z,56.16
2023-02-08T08:38:43.679Z,56.63
2023-02-08T08:40:45.247Z,55.30
2023-02-08T08:42:46.802Z,55.24
2023-02-08T08:44:48.439Z,55.59
2023-02-08T08:46:50.084Z,55.17
2023-02-08T08:48:52.174Z,55.37
2023-02-08T08:50:55.122Z,54.39
2023-02-08T08:52:56.806Z,53.99
2023-02-08T08:54:58.447Z,54.52
2023-02-08T08:57:00.114Z,54.25
2023-02-08T08:59:01.761Z,54.23
2023-02-08T09:01:03.636Z,53.48
2023-02-08T09:03:05.351Z,53.08
2023-02-08T09:05:08.271Z,52.11
2023-02-08T09:07:10.624Z,51.82
2023-02-08T09:09:12.478Z,52.31
2023-02-08T09:11:15.384Z,53.06
2023-02-08T09:13:19.894Z,52.71
2023-02-08T09:15:21.623Z,52.11
2023-02-08T09:17:23.235Z,52.08
2023-02-08T09:19:24.935Z,50.97
2023-02-08T09:21:26.740Z,52.06
2023-02-08T09:23:28.480Z,52.59
2023-02-08T09:25:30.065Z,53.16
2023-02-08T09:27:31.700Z,52.81
2023-02-08T09:29:33.865Z,52.88
2023-02-08T09:31:38.032Z,51.69
2023-02-08T09:33:39.806Z,51.59
2023-02-08T09:35:41.846Z,50.80
2023-02-08T09:37:43.602Z,51.20
2023-02-08T09:39:45.652Z,50.76
2023-02-08T09:41:47.725Z,51.29
2023-02-08T09:44:20.307Z,51.26
2023-02-08T09:46:24.764Z,51.96
2023-02-08T09:48:35.166Z,51.12
2023-02-08T09:50:41.135Z,51.10
2023-02-08T09:52:47.859Z,51.36
2023-02-08T09:54:52.941Z,51.58
2023-02-08T09:56:54.988Z,51.68
2023-02-08T09:58:57.964Z,51.00
2023-02-08T10:01:00.229Z,50.62
2023-02-08T10:03:02.888Z,49.95
2023-02-08T10:05:11.197Z,49.11
2023-02-08T10:07:12.943Z,49.45
2023-02-08T10:09:15.371Z,49.11
2023-02-08T10:11:41.084Z,47.28
2023-02-08T10:14:10.237Z,47.55
2023-02-08T10:16:16.880Z,46.69
2023-02-08T10:18:24.977Z,47.59
2023-02-08T10:20:57.808Z,49.19
2023-02-08T10:23:21.880Z,49.16
2023-02-08T10:25:23.921Z,49.86
2023-02-08T10:27:40.845Z,49.93
2023-02-08T10:29:58.707Z,49.92
2023-02-08T10:32:15.357Z,48.78
2023-02-08T10:34:36.924Z,48.47
2023-02-08T10:36:45.587Z,47.69
2023-02-08T10:38:50.502Z,46.76
2023-02-08T10:41:09.672Z,46.30
2023-02-08T10:43:34.338Z,47.16
2023-02-08T10:45:49.159Z,46.68
2023-02-08T10:48:02.234Z,45.55
2023-02-08T10:50:45.674Z,45.31
2023-02-08T10:52:51.921Z,44.78
2023-02-08T10:54:56.158Z,44.98
2023-02-08T10:57:03.374Z,44.74
2023-02-08T10:59:23.028Z,46.25
2023-02-08T11:01:25.946Z,46.95
2023-02-08T11:03:39.771Z,46.70
2023-02-08T11:05:46.677Z,47.17
2023-02-08T11:07:59.373Z,47.90
2023-02-08T11:10:14.960Z,48.63
2023-02-08T11:12:22.999Z,49.29
2023-02-08T11:14:47.619Z,50.40
2023-02-08T11:16:50.191Z,51.28
2023-02-08T11:19:04.693Z,51.97
2023-02-08T11:21:13.912Z,52.43
2023-02-08T11:23:29.081Z,52.60
2023-02-08T11:25:37.509Z,53.82
2023-02-08T11:27:50.610Z,56.00
2023-02-08T11:30:19.486Z,55.86
2023-02-08T11:32:21.351Z,55.27
2023-02-08T11:34:30.286Z,56.05
2023-02-08T11:36:34.244Z,55.14
2023-02-08T11:38:37.351Z,54.73
2023-02-08T11:40:45.404Z,54.46
2023-02-08T11:42:49.818Z,54.42
2023-02-08T11:44:54.390Z,53.76
2023-02-08T11:47:01.542Z,53.74
2023-02-08T11:49:03.744Z,53.84
2023-02-08T11:51:05.946Z,53.98
2023-02-08T11:53:21.338Z,54.37
2023-02-08T11:55:29.904Z,55.66
2023-02-08T11:57:33.252Z,55.84
2023-02-08T11:59:34.854Z,55.14
2023-02-08T12:01:38.579Z,54.31
2023-02-08T12:03:40.708Z,54.04
2023-02-08T12:06:07.996Z,53.98
2023-02-08T12:08:24.010Z,54.54
2023-02-08T12:10:58.165Z,53.40
2023-02-08T12:13:22.098Z,53.24
2023-02-08T12:15:58.275Z,53.85
2023-02-08T12:18:12.321Z,54.33
2023-02-08T12:20:26.038Z,54.59
2023-02-08T12:22:29.467Z,54.89
2023-02-08T12:24:30.987Z,55.39
2023-02-08T12:27:03.681Z,55.11
2023-02-08T12:29:45.694Z,55.00
2023-02-08T12:32:00.874Z,54.49
2023-02-08T12:38:03.780Z,54.23
2023-02-08T12:40:30.151Z,54.78
2023-02-08T12:42:41.276Z,54.90
2023-02-08T12:45:07.664Z,54.32
2023-02-08T12:47:27.705Z,53.25
2023-02-08T12:49:42.517Z,52.63
2023-02-08T12:51:47.208Z,52.72
2023-02-08T12:54:00.856Z,51.81
2023-02-08T12:56:07.148Z,51.05
2023-02-08T12:58:31.267Z,51.48
2023-02-08T13:00:35.163Z,51.21
2023-02-08T13:02:44.566Z,50.90
2023-02-08T13:04:49.501Z,50.40
2023-02-08T13:06:58.489Z,49.85
2023-02-08T13:09:08.689Z,50.39
2023-02-08T13:11:33.362Z,50.05
2023-02-08T13:13:35.437Z,49.29
2023-02-08T13:15:46.116Z,49.01
2023-02-08T13:18:13.305Z,48.39
2023-02-08T13:20:32.523Z,48.20
2023-02-08T13:22:39.954Z,48.67
2023-02-08T13:24:44.245Z,48.34
2023-02-08T13:26:45.803Z,47.93
2023-02-08T13:28:50.087Z,48.94
2023-02-08T13:31:01.016Z,48.56
2023-02-08T13:33:30.375Z,48.61
2023-02-08T13:35:32.515Z,48.87
2023-02-08T13:37:35.308Z,48.18
2023-02-08T13:39:42.768Z,49.02
2023-02-08T13:41:54.424Z,49.13
2023-02-08T13:44:04.432Z,49.04
2023-02-08T13:46:06.646Z,49.45
2023-02-08T13:48:11.685Z,48.75
2023-02-08T13:50:48.636Z,49.16
2023-02-08T13:52:51.594Z,50.01
2023-02-08T13:55:35.884Z,50.29
2023-02-08T13:57:54.923Z,50.12
2023-02-08T14:00:26.329Z,50.10
2023-02-08T14:02:28.827Z,51.51
2023-02-08T14:04:33.988Z,52.38
2023-02-08T14:06:43.586Z,52.12
2023-02-08T14:09:07.237Z,52.26
2023-02-08T14:11:11.775Z,51.58
2023-02-08T14:13:32.882Z,51.67
2023-02-08T14:15:37.700Z,51.66
2023-02-08T14:17:46.487Z,52.32
2023-02-08T14:20:00.395Z,52.08
2023-02-08T14:22:15.841Z,53.42
2023-02-08T14:24:23.617Z,54.40
2023-02-08T14:26:25.352Z,55.13
2023-02-08T14:28:29.732Z,54.99
2023-02-08T14:30:33.421Z,55.25
2023-02-08T14:32:39.683Z,55.13
2023-02-08T14:34:41.476Z,54.90
2023-02-08T14:36:43.198Z,55.27
2023-02-08T14:38:47.594Z,53.95
2023-02-08T14:40:58.749Z,53.57
2023-02-08T14:43:25.408Z,53.37
2023-02-08T14:45:35.400Z,53.73
2023-02-08T14:47:39.702Z,53.76
2023-02-08T14:49:45.524Z,54.08
2023-02-08T14:51:52.075Z,55.49
2023-02-08T14:54:04.742Z,55.62
2023-02-08T14:56:33.969Z,56.42
2023-02-08T14:58:38.246Z,56.82
2023-02-08T15:00:40.088Z,57.04
2023-02-08T15:02:45.073Z,57.76
2023-02-08T15:04:47.505Z,57.30
2023-02-08T15:07:14.828Z,57.18
2023-02-08T15:09:19.181Z,55.78
2023-02-08T15:11:27.247Z,55.15
2023-02-08T15:13:29.676Z,55.25
2023-02-08T15:15:34.262Z,55.69
2023-02-08T15:17:40.809Z,55.78
2023-02-08T15:19:43.260Z,56.23
2023-02-08T15:21:44.998Z,56.16
2023-02-08T15:24:00.341Z,56.18
2023-02-08T15:26:19.436Z,56.21
2023-02-08T15:28:23.934Z,56.66
2023-02-08T15:30:36.221Z,56.78
2023-02-08T15:32:40.457Z,55.83
2023-02-08T15:34:47.179Z,55.72
2023-02-08T15:36:51.604Z,55.97
2023-02-08T15:38:54.355Z,54.87
2023-02-08T15:41:12.011Z,54.51
2023-02-08T15:43:13.731Z,55.07
2023-02-08T15:45:27.073Z,54.53
2023-02-08T15:47:31.931Z,54.48
2023-02-08T15:49:38.384Z,54.02
2023-02-08T15:51:40.206Z,54.59
2023-02-08T15:53:44.274Z,54.74
2023-02-08T15:55:49.382Z,54.52
2023-02-08T15:58:09.639Z,55.06
2023-02-08T16:00:14.590Z,55.50
2023-02-08T16:02:22.098Z,54.26
2023-02-08T16:04:24.835Z,54.95
2023-02-08T16:06:29.291Z,54.80
2023-02-08T16:08:33.530Z,53.74
2023-02-08T16:10:44.817Z,53.78
2023-02-08T16:12:51.948Z,53.24
2023-02-08T16:14:57.069Z,53.36
2023-02-08T16:16:58.883Z,53.90
2023-02-08T16:19:20.245Z,53.43
2023-02-08T16:21:24.596Z,53.69
2023-02-08T16:23:34.548Z,53.83
2023-02-08T16:25:49.763Z,53.86
2023-02-08T16:27:51.517Z,54.32
2023-02-08T16:29:53.538Z,53.73
2023-02-08T16:32:40.049Z,53.45
2023-02-08T16:34:41.683Z,53.88
2023-02-08T16:36:46.601Z,54.59
2023-02-08T16:39:14.179Z,55.49
2023-02-08T16:41:19.194Z,56.15
2023-02-08T16:43:29.112Z,55.94
2023-02-08T16:45:30.769Z,56.17
2023-02-08T16:47:46.051Z,56.77
2023-02-08T16:49:49.623Z,57.32
2023-02-08T16:51:53.462Z,56.80
2023-02-08T16:53:56.913Z,56.80
2023-02-08T16:55:59.465Z,56.98
2023-02-08T16:58:01.178Z,56.68
2023-02-08T17:00:03.205Z,56.16
2023-02-08T17:02:11.140Z,56.91
2023-02-08T17:04:12.824Z,56.97
2023-02-08T17:06:35.360Z,56.45
2023-02-08T17:08:37.570Z,56.93
2023-02-08T17:10:39.221Z,57.27
2023-02-08T17:12:40.840Z,56.97
2023-02-08T17:14:42.403Z,57.88
2023-02-08T17:16:44.179Z,57.65
2023-02-08T17:18:47.021Z,57.05
2023-02-08T17:20:48.672Z,57.84
2023-02-08T17:22:51.269Z,59.06
2023-02-08T17:24:52.902Z,59.10
2023-02-08T17:26:54.865Z,59.24
2023-02-08T17:28:59.345Z,59.66
2023-02-08T17:31:01.184Z,59.28
2023-02-08T17:33:04.297Z,59.47
2023-02-08T17:35:06.194Z,59.60
2023-02-08T17:37:08.820Z,59.71
2023-02-08T17:39:10.767Z,59.99
2023-02-08T17:41:18.069Z,60.42
2023-02-08T17:43:19.810Z,60.80
2023-02-08T17:45:21.574Z,60.80
2023-02-08T17:47:23.210Z,61.22
2023-02-08T17:49:24.813Z,60.69
2023-02-08T17:51:26.416Z,60.02
2023-02-08T17:53:28.019Z,60.30
2023-02-08T17:55:29.649Z,59.94
2023-02-08T17:57:36.434Z,59.37
2023-02-08T17:59:41.060Z,59.69
2023-02-08T18:01:44.513Z,60.31
2023-02-08T18:03:47.379Z,59.73
2023-02-08T18:05:55.806Z,60.46
2023-02-08T18:07:57.473Z,60.51
2023-02-08T18:09:59.101Z,61.13
2023-02-08T18:12:00.890Z,60.26
2023-02-08T18:14:02.561Z,59.57
2023-02-08T18:16:15.182Z,59.58
2023-02-08T18:18:18.326Z,59.96
2023-02-08T18:20:20.058Z,59.90
2023-02-08T18:22:22.884Z,59.83
2023-02-08T18:24:25.723Z,59.70
2023-02-08T18:26:27.384Z,59.56
2023-02-08T18:28:29.079Z,59.06
2023-02-08T18:30:31.017Z,59.26
2023-02-08T18:32:32.585Z,59.33
2023-02-08T18:34:34.508Z,58.90
2023-02-08T18:36:36.651Z,59.54
2023-02-08T18:38:46.295Z,59.56
2023-02-08T18:40:47.927Z,58.03
2023-02-08T18:42:49.864Z,58.20
2023-02-08T18:44:51.721Z,57.51
2023-02-08T18:46:53.467Z,58.03
2023-02-08T18:48:55.800Z,57.82
2023-02-08T18:50:59.473Z,57.41
2023-02-08T18:53:01.136Z,57.64
2023-02-08T18:55:02.873Z,57.49
2023-02-08T18:57:06.268Z,57.74
2023-02-08T18:59:08.164Z,57.50
2023-02-08T19:01:16.100Z,56.72
2023-02-08T19:03:18.876Z,57.68
2023-02-08T19:05:20.502Z,57.53
2023-02-08T19:07:22.069Z,57.14
2023-02-08T19:09:23.652Z,57.93
2023-02-08T19:11:34.244Z,57.53
2023-02-08T19:13:35.805Z,57.91
2023-02-08T19:15:38.404Z,57.40
2023-02-08T19:17:40.117Z,57.86
2023-02-08T19:19:42.087Z,57.25
2023-02-08T19:21:43.750Z,57.58
2023-02-08T19:23:52.359Z,57.66
2023-02-08T19:25:54.025Z,58.00
2023-02-08T19:27:56.026Z,58.05
2023-02-08T19:29:57.722Z,57.87
2023-02-08T19:31:59.404Z,57.26
2023-02-08T19:34:02.630Z,57.79
2023-02-08T19:36:09.084Z,58.77
2023-02-08T19:38:10.818Z,59.69
2023-02-08T19:40:12.828Z,59.14
2023-02-08T19:42:14.465Z,57.92
2023-02-08T19:44:17.887Z,57.16
2023-02-08T19:46:22.409Z,56.73
2023-02-08T19:48:24.782Z,56.71
2023-02-08T19:50:26.445Z,56.76
2023-02-08T19:52:28.179Z,56.14
2023-02-08T19:54:29.906Z,57.08
2023-02-08T19:56:33.848Z,57.35
2023-02-08T19:58:36.534Z,57.10
2023-02-08T20:00:38.155Z,56.55
2023-02-08T20:02:39.865Z,57.01
2023-02-08T20:04:41.658Z,58.46
2023-02-08T20:06:45.077Z,58.95
2023-02-08T20:08:47.469Z,60.20
2023-02-08T20:10:49.219Z,59.14
2023-02-08T20:12:50.833Z,59.80
2023-02-08T20:14:52.609Z,60.07
2023-02-08T20:16:54.500Z,60.65
2023-02-08T20:18:56.329Z,60.51
2023-02-08T20:21:04.532Z,60.33
2023-02-08T20:23:21.764Z,59.96
2023-02-08T20:25:24.515Z,59.37
2023-02-08T20:27:32.147Z,59.44
2023-02-08T20:29:33.874Z,59.59
2023-02-08T20:31:37.575Z,59.64
2023-02-08T20:33:39.445Z,59.33
2023-02-08T20:35:41.245Z,59.09
2023-02-08T20:37:43.202Z,58.64
2023-02-08T20:39:44.866Z,58.62
2023-02-08T20:41:47.745Z,59.47
2023-02-08T20:43:49.578Z,59.69
2023-02-08T20:45:51.224Z,59.57
2023-02-08T20:47:52.825Z,58.59
2023-02-08T20:49:54.430Z,57.32
2023-02-08T20:51:56.251Z,58.26
2023-02-08T20:53:59.760Z,58.53
2023-02-08T20:56:06.161Z,58.97
2023-02-08T20:58:08.126Z,59.37
2023-02-08T21:00:10.561Z,59.22
2023-02-08T21:02:22.743Z,59.85
2023-02-08T21:04:24.475Z,60.79
2023-02-08T21:06:31.318Z,60.46
2023-02-08T21:08:33.025Z,60.27
2023-02-08T21:10:37.872Z,59.73
2023-02-08T21:12:39.512Z,60.17
2023-02-08T21:14:43.176Z,59.34
2023-02-08T21:16:46.397Z,60.38
2023-02-08T21:18:48.215Z,59.56
2023-02-08T21:20:50.055Z,59.70
2023-02-08T21:22:51.670Z,60.41
2023-02-08T21:24:53.322Z,60.37
2023-02-08T21:26:56.284Z,60.46
2023-02-08T21:28:58.886Z,61.01
2023-02-08T21:31:02.428Z,61.21
2023-02-08T21:33:04.207Z,62.29
2023-02-08T21:35:06.323Z,61.73
2023-02-08T21:37:07.915Z,62.31
2023-02-08T21:39:09.643Z,61.68
2023-02-08T21:41:17.393Z,61.59
2023-02-08T21:43:19.016Z,61.19
2023-02-08T21:45:20.590Z,60.79
2023-02-08T21:47:22.246Z,60.62
2023-02-08T21:49:42.112Z,60.87
2023-02-08T21:52:02.809Z,60.13
2023-02-08T21:54:23.784Z,59.58
2023-02-08T21:56:25.420Z,59.16
2023-02-08T21:58:27.110Z,59.37
2023-02-08T22:00:28.773Z,58.75
2023-02-08T22:02:30.859Z,59.48
2023-02-08T22:04:33.855Z,59.04
2023-02-08T22:06:50.743Z,59.19
2023-02-08T22:08:52.352Z,58.70
2023-02-08T22:10:58.461Z,58.76
2023-02-08T22:13:00.573Z,58.37
2023-02-08T22:15:02.265Z,58.64
2023-02-08T22:17:03.920Z,59.15
2023-02-08T22:19:06.096Z,58.39
2023-02-08T22:21:08.650Z,58.68
2023-02-08T22:23:10.195Z,58.44
2023-02-08T22:25:12.184Z,58.43
2023-02-08T22:27:13.832Z,58.45
2023-02-08T22:29:15.401Z,58.55
2023-02-08T22:31:17.295Z,58.18
2023-02-08T22:33:19.033Z,58.39
2023-02-08T22:35:20.652Z,58.43
2023-02-08T22:37:22.291Z,58.36
2023-02-08T22:39:24.143Z,58.31
2023-02-08T22:41:25.782Z,57.81
2023-02-08T22:43:28.974Z,58.58
2023-02-08T22:45:30.690Z,58.39
2023-02-08T22:47:33.398Z,58.06
2023-02-08T22:49:35.728Z,58.37
2023-02-08T22:51:37.866Z,58.34
2023-02-08T22:53:39.912Z,58.63
2023-02-08T22:55:47.489Z,58.38
2023-02-08T22:57:49.122Z,58.56
2023-02-08T22:59:50.800Z,58.56
2023-02-08T23:01:52.453Z,58.46
2023-02-08T23:03:54.332Z,58.93
2023-02-08T23:05:56.119Z,58.48
2023-02-08T23:07:57.686Z,58.87
2023-02-08T23:09:59.254Z,58.85
2023-02-08T23:12:01.128Z,58.99
2023-02-08T23:14:02.739Z,59.11
2023-02-08T23:16:04.629Z,58.78
2023-02-08T23:18:07.813Z,58.73
2023-02-08T23:20:10.025Z,58.68
2023-02-08T23:22:11.616Z,58.60
2023-02-08T23:24:13.271Z,58.24
2023-02-08T23:26:17.719Z,58.94
2023-02-08T23:28:19.348Z,58.26
2023-02-08T23:30:21.036Z,58.53
2023-02-08T23:32:22.627Z,58.30
2023-02-08T23:34:24.225Z,58.09
2023-02-08T23:36:25.949Z,58.57
2023-02-08T23:38:27.663Z,58.35
2023-02-08T23:40:29.280Z,57.78
2023-02-08T23:42:30.867Z,58.00
2023-02-08T23:44:32.430Z,58.02
2023-02-08T23:46:34.187Z,58.40
2023-02-08T23:48:37.851Z,58.41
2023-02-08T23:50:40.745Z,58.10
2023-02-08T23:52:42.291Z,58.51
2023-02-08T23:54:43.897Z,58.56
2023-02-08T23:56:45.550Z,58.81
2023-02-08T23:58:48.871Z,58.37
